Time;durP1;ratioP1;P1;durP2;ratioP2;P2;SDS_P1;SDS_P2;PMS_P1;PMS_P2;Temp;Humidity;BMP_temperature;BMP_pressure;BME280_temperature;BME280_humidity;BME280_pressure;Samples;Min_cycle;Max_cycle;Signal;HPM_P1;HPM_P2
2022/11/30 00:02:19;;;;;;;39.30;24.33;;;;;;;4.01;100.00;101027.03;5075071;28;20081;-71
2022/11/30 00:04:45;;;;;;;44.28;25.95;;;;;;;4.05;100.00;101033.75;5043862;28;20036;-71
2022/11/30 00:07:10;;;;;;;39.65;23.40;;;;;;;4.07;100.00;101031.59;5047091;28;20476;-72
2022/11/30 00:09:36;;;;;;;36.65;23.42;;;;;;;4.10;100.00;101031.13;5060961;28;20024;-71
2022/11/30 00:12:01;;;;;;;36.78;23.98;;;;;;;4.12;100.00;101034.44;5058152;28;20036;-71
2022/11/30 00:14:27;;;;;;;38.20;23.88;;;;;;;4.16;100.00;101035.66;5044623;28;20020;-71
2022/11/30 00:16:53;;;;;;;42.45;24.98;;;;;;;4.18;100.00;101030.78;5061325;28;20519;-71
2022/11/30 00:19:18;;;;;;;41.72;25.45;;;;;;;4.21;100.00;101024.78;5077456;28;20020;-71
2022/11/30 00:21:44;;;;;;;39.35;23.98;;;;;;;4.22;100.00;101015.44;5035836;28;20070;-71
2022/11/30 00:24:09;;;;;;;44.22;24.77;;;;;;;4.25;100.00;101014.97;5074240;28;20063;-71
2022/11/30 00:26:35;;;;;;;43.45;24.25;;;;;;;4.28;100.00;101019.16;5052046;28;20036;-71
2022/11/30 00:29:00;;;;;;;45.60;26.20;;;;;;;4.30;100.00;101024.44;5055078;28;20557;-71
2022/11/30 00:31:26;;;;;;;47.83;27.30;;;;;;;4.32;100.00;101016.75;5016586;28;20020;-71
2022/11/30 00:33:51;;;;;;;43.97;25.48;;;;;;;4.34;100.00;101014.63;5038250;28;20059;-71
2022/11/30 00:36:18;;;;;;;52.35;28.45;;;;;;;4.37;100.00;101014.97;5021662;28;20064;-71
2022/11/30 00:38:44;;;;;;;56.22;28.75;;;;;;;4.39;100.00;101010.06;5051442;28;20049;-71
2022/11/30 00:41:10;;;;;;;62.17;29.27;;;;;;;4.43;100.00;101018.66;5030025;28;20562;-71
2022/11/30 00:43:35;;;;;;;65.32;30.52;;;;;;;4.46;100.00;101016.28;5005087;28;20028;-71
2022/11/30 00:46:01;;;;;;;67.05;31.15;;;;;;;4.48;100.00;101011.38;5033005;28;20060;-71
2022/11/30 00:48:26;;;;;;;65.70;29.58;;;;;;;4.52;100.00;101013.66;5040185;28;20051;-71
2022/11/30 00:50:52;;;;;;;61.35;29.00;;;;;;;4.55;100.00;101011.25;5040000;28;20056;-71
2022/11/30 00:53:17;;;;;;;59.58;28.35;;;;;;;4.55;100.00;101004.91;5053215;28;20052;-71
2022/11/30 00:55:43;;;;;;;59.15;26.85;;;;;;;4.59;100.00;101012.41;5024263;28;20163;-71
2022/11/30 00:58:09;;;;;;;61.88;27.35;;;;;;;4.59;100.00;101014.34;5007561;28;20029;-71
2022/11/30 01:00:34;;;;;;;61.80;26.38;;;;;;;4.62;100.00;101005.59;4998740;28;20021;-71
2022/11/30 01:03:01;;;;;;;52.22;23.35;;;;;;;4.61;100.00;101012.19;5027213;28;20037;-71
2022/11/30 01:05:26;;;;;;;51.70;23.35;;;;;;;4.64;100.00;101004.28;5024810;28;20025;-71
2022/11/30 01:07:52;;;;;;;53.10;23.75;;;;;;;4.64;100.00;101003.44;5040764;28;20036;-71
2022/11/30 01:10:17;;;;;;;57.35;24.42;;;;;;;4.67;100.00;100992.78;5025531;28;20499;-71
2022/11/30 01:12:43;;;;;;;64.63;25.30;;;;;;;4.69;100.00;101001.66;5024129;28;20029;-71
2022/11/30 01:15:08;;;;;;;63.47;25.17;;;;;;;4.70;100.00;100999.72;5037765;28;20033;-71
2022/11/30 01:17:34;;;;;;;55.08;23.08;;;;;;;4.72;100.00;100996.75;5027549;28;20035;-71
2022/11/30 01:19:59;;;;;;;50.67;21.83;;;;;;;4.74;100.00;101003.69;5051109;28;20174;-71
2022/11/30 01:22:25;;;;;;;53.90;21.60;;;;;;;4.76;100.00;101017.16;5040606;28;20025;-71
2022/11/30 01:24:50;;;;;;;45.92;20.63;;;;;;;4.77;100.00;101018.88;5070854;28;20052;-71
2022/11/30 01:27:16;;;;;;;47.97;20.17;;;;;;;4.78;100.00;101017.78;5039580;28;20028;-71
2022/11/30 01:29:41;;;;;;;39.05;18.83;;;;;;;4.77;100.00;101024.38;5032109;28;20072;-71
2022/11/30 01:32:07;;;;;;;41.38;18.85;;;;;;;4.79;100.00;101022.19;5075504;28;20596;-71
2022/11/30 01:34:33;;;;;;;47.63;19.52;;;;;;;4.77;100.00;101019.69;5040943;28;20037;-71
2022/11/30 01:36:58;;;;;;;39.50;18.42;;;;;;;4.77;100.00;101019.69;5057426;28;20028;-71
2022/11/30 01:39:24;;;;;;;39.65;17.83;;;;;;;4.80;100.00;101013.69;5071564;28;20550;-71
2022/11/30 01:41:49;;;;;;;38.45;17.10;;;;;;;4.80;100.00;101021.13;5098020;28;20031;-71
2022/11/30 01:44:15;;;;;;;37.22;17.88;;;;;;;4.79;100.00;101012.03;5043458;28;20031;-71
2022/11/30 01:46:54;;;;;;;41.92;18.45;;;;;;;4.81;100.00;101020.03;5074552;28;20036;-71
2022/11/30 01:49:26;;;;;;;37.97;16.73;;;;;;;4.78;100.00;101023.28;5044568;28;20111;-71
2022/11/30 01:51:55;;;;;;;37.17;18.30;;;;;;;4.80;100.00;101019.19;5035919;28;20123;-71
2022/11/30 01:54:31;;;;;;;39.05;17.27;;;;;;;4.82;100.00;101018.94;5078731;28;20260;-71
2022/11/30 01:57:04;;;;;;;42.35;19.17;;;;;;;4.78;100.00;101023.28;5045226;28;20052;-71
2022/11/30 01:59:29;;;;;;;35.28;18.17;;;;;;;4.77;100.00;101032.63;5046886;28;20037;-71
2022/11/30 02:01:55;;;;;;;35.13;16.10;;;;;;;4.79;100.00;101027.69;5043019;28;20063;-71
2022/11/30 02:04:28;;;;;;;35.85;16.42;;;;;;;4.80;100.00;101026.63;5056072;28;20031;-71
2022/11/30 02:06:55;;;;;;;35.97;16.02;;;;;;;4.81;100.00;101031.03;5071406;28;20059;-71
2022/11/30 02:09:21;;;;;;;36.53;16.98;;;;;;;4.76;100.00;101029.00;5062828;28;20432;-71
2022/11/30 02:11:46;;;;;;;29.70;15.20;;;;;;;4.75;100.00;101037.53;5059158;28;20035;-71
2022/11/30 02:14:36;;;;;;;31.25;15.07;;;;;;;4.77;100.00;101024.38;5061603;28;20070;-71
2022/11/30 02:17:51;;;;;;;31.50;15.10;;;;;;;4.78;100.00;101023.28;5060875;28;20031;-71
2022/11/30 02:20:28;;;;;;;34.53;15.98;;;;;;;4.75;100.00;101027.34;4962991;28;20030;-71
2022/11/30 02:23:20;;;;;;;32.72;15.63;;;;;;;4.74;100.00;101028.44;4975614;28;20027;-71
2022/11/30 02:25:51;;;;;;;38.00;15.53;;;;;;;4.68;100.00;101027.50;4979688;28;20030;-71
2022/11/30 02:28:41;;;;;;;27.77;14.27;;;;;;;4.65;100.00;101027.97;4979463;28;20075;-71
2022/11/30 02:31:09;;;;;;;29.17;14.63;;;;;;;4.63;100.00;101027.38;4988199;28;20427;-71
2022/11/30 02:33:34;;;;;;;29.88;14.35;;;;;;;4.60;100.00;101021.53;4998384;28;20069;-71
2022/11/30 02:36:00;;;;;;;31.73;15.45;;;;;;;4.54;100.00;101028.84;4982439;28;20116;-71
2022/11/30 02:38:26;;;;;;;29.40;15.80;;;;;;;4.48;100.00;101027.03;4963418;28;20573;-71
2022/11/30 02:40:51;;;;;;;29.35;14.10;;;;;;;4.47;100.00;101028.94;4982172;28;20090;-71
2022/11/30 02:43:18;;;;;;;30.85;15.10;;;;;;;4.41;100.00;101026.34;4963790;28;20089;-71
2022/11/30 02:45:49;;;;;;;27.58;14.02;;;;;;;4.41;100.00;101020.84;4983466;28;20058;-71
2022/11/30 02:48:17;;;;;;;25.40;13.35;;;;;;;4.41;100.00;101026.34;4948297;28;20127;-71
2022/11/30 02:50:55;;;;;;;28.67;13.88;;;;;;;4.34;100.00;101026.44;5008212;28;20040;-71
2022/11/30 02:53:20;;;;;;;26.85;13.95;;;;;;;4.32;100.00;101023.13;5061928;28;20408;-71
2022/11/30 02:55:46;;;;;;;28.83;13.40;;;;;;;4.27;100.00;101017.50;5078826;28;20032;-71
2022/11/30 02:58:11;;;;;;;26.00;14.38;;;;;;;4.24;100.00;101017.97;5078742;28;20024;-71
2022/11/30 03:00:37;;;;;;;21.85;12.32;;;;;;;4.24;100.00;101023.47;5034612;28;20063;-71
2022/11/30 03:03:02;;;;;;;24.67;13.13;;;;;;;4.19;100.00;101023.34;5074903;28;20035;-71
2022/11/30 03:05:28;;;;;;;26.67;12.88;;;;;;;4.12;100.00;101028.94;5025265;28;20055;-71
2022/11/30 03:07:53;;;;;;;24.20;12.95;;;;;;;4.08;100.00;101027.78;5041780;28;20082;-71
2022/11/30 03:10:19;;;;;;;23.17;11.85;;;;;;;4.05;100.00;101027.41;5051929;28;20042;-71
2022/11/30 03:12:44;;;;;;;21.80;11.95;;;;;;;4.00;100.00;101033.63;5041802;28;20034;-71
2022/11/30 03:15:10;;;;;;;23.98;12.27;;;;;;;3.92;100.00;101023.81;5068746;28;20031;-71
2022/11/30 03:17:35;;;;;;;23.25;12.27;;;;;;;3.87;100.00;101031.09;5024781;28;20590;-71
2022/11/30 03:20:01;;;;;;;26.63;13.13;;;;;;;3.82;100.00;101029.06;5055217;28;20020;-71
2022/11/30 03:22:26;;;;;;;23.40;11.70;;;;;;;3.76;100.00;101025.34;5057828;28;20027;-71
2022/11/30 03:24:52;;;;;;;24.05;12.18;;;;;;;3.68;100.00;101028.44;5068061;28;20105;-71
2022/11/30 03:27:17;;;;;;;20.90;11.20;;;;;;;3.65;100.00;101033.56;5044582;28;20020;-71
2022/11/30 03:29:43;;;;;;;20.35;11.63;;;;;;;3.58;100.00;101025.44;5080231;28;20086;-71
2022/11/30 03:32:08;;;;;;;22.63;12.82;;;;;;;3.58;100.00;101028.19;5043140;28;20058;-71
2022/11/30 03:34:34;;;;;;;19.92;10.65;;;;;;;3.50;100.00;101031.25;5074402;28;20062;-71
2022/11/30 03:36:59;;;;;;;21.77;11.60;;;;;;;3.47;100.00;101034.47;5074556;28;20440;-71
2022/11/30 03:39:25;;;;;;;22.40;11.25;;;;;;;3.45;100.00;101028.38;5077919;28;20020;-71
2022/11/30 03:41:50;;;;;;;18.55;9.82;;;;;;;3.33;100.00;101031.91;5061342;28;20051;-71
2022/11/30 03:44:16;;;;;;;19.30;10.70;;;;;;;3.26;100.00;101030.34;5049188;28;20086;-71
2022/11/30 03:46:41;;;;;;;22.45;11.77;;;;;;;3.24;100.00;101032.50;5031736;28;20119;-71
2022/11/30 03:49:07;;;;;;;20.27;11.02;;;;;;;3.18;100.00;101033.44;5035602;28;20028;-71
2022/11/30 03:51:32;;;;;;;19.25;10.90;;;;;;;3.17;100.00;101037.22;5015361;28;20027;-71
2022/11/30 03:53:58;;;;;;;18.65;9.95;;;;;;;3.12;100.00;101030.53;5095452;28;20032;-71
2022/11/30 03:56:23;;;;;;;19.08;10.80;;;;;;;3.06;100.00;101033.34;5074453;28;20040;-71
2022/11/30 03:58:49;;;;;;;21.17;10.80;;;;;;;3.01;100.00;101028.59;5040883;28;20048;-71
2022/11/30 04:01:16;;;;;;;17.48;10.02;;;;;;;2.96;100.00;101036.66;5070829;28;20035;-71
2022/11/30 04:03:42;;;;;;;17.48;9.70;;;;;;;2.93;100.00;101026.16;5048509;28;20103;-71
2022/11/30 04:06:08;;;;;;;20.70;11.43;;;;;;;2.86;100.00;101031.69;5071695;28;20032;-71
2022/11/30 04:08:34;;;;;;;25.08;11.85;;;;;;;2.81;100.00;101028.81;5052939;28;20058;-71
2022/11/30 04:11:00;;;;;;;23.58;11.32;;;;;;;2.77;100.00;101033.09;5027505;28;20032;-71
2022/11/30 04:13:25;;;;;;;29.67;12.95;;;;;;;2.70;100.00;101032.31;5077410;28;20035;-71
2022/11/30 04:15:51;;;;;;;26.95;12.93;;;;;;;2.68;100.00;101037.22;5042027;28;20056;-71
2022/11/30 04:18:17;;;;;;;25.92;11.95;;;;;;;2.64;100.00;101028.59;5069522;28;20396;-71
2022/11/30 04:20:43;;;;;;;28.77;13.15;;;;;;;2.61;100.00;101040.03;5045818;28;20032;-70
2022/11/30 04:23:09;;;;;;;29.17;14.32;;;;;;;2.61;100.00;101040.03;5048580;28;20032;-71
2022/11/30 04:25:37;;;;;;;38.25;15.68;;;;;;;2.59;100.00;101041.31;5058678;28;20085;-71
2022/11/30 04:28:02;;;;;;;35.35;15.50;;;;;;;2.55;100.00;101040.94;5059549;28;20536;-71
2022/11/30 04:30:28;;;;;;;33.28;14.48;;;;;;;2.55;100.00;101046.44;5059096;28;20051;-71
2022/11/30 04:32:53;;;;;;;33.72;15.25;;;;;;;2.56;100.00;101041.78;5056771;28;20045;-71
2022/11/30 04:35:18;;;;;;;33.85;15.43;;;;;;;2.54;100.00;101041.19;5041423;28;20063;-71
2022/11/30 04:37:44;;;;;;;34.67;15.73;;;;;;;2.54;100.00;101038.44;5058782;28;20039;-71
2022/11/30 04:40:10;;;;;;;31.90;14.73;;;;;;;2.51;100.00;101042.47;5028235;28;20029;-71
2022/11/30 04:42:35;;;;;;;39.70;15.70;;;;;;;2.50;100.00;101039.94;5056055;28;20055;-71
2022/11/30 04:45:01;;;;;;;35.33;15.18;;;;;;;2.50;100.00;101049.00;5081201;28;20484;-71
2022/11/30 04:47:26;;;;;;;35.35;15.30;;;;;;;2.44;100.00;101045.28;5063046;28;20035;-71
2022/11/30 04:49:52;;;;;;;31.20;13.25;;;;;;;2.41;100.00;101040.25;5064098;28;20029;-71
2022/11/30 04:52:17;;;;;;;28.42;12.73;;;;;;;2.34;100.00;101044.97;5064044;28;20028;-71
2022/11/30 04:54:43;;;;;;;27.75;13.43;;;;;;;2.33;100.00;101039.72;5086349;28;20024;-71
2022/11/30 04:57:08;;;;;;;24.80;11.82;;;;;;;2.34;100.00;101041.38;5110921;28;20028;-71
2022/11/30 04:59:34;;;;;;;23.67;11.73;;;;;;;2.29;100.00;101036.59;5079097;28;20077;-71
2022/11/30 05:01:59;;;;;;;24.70;11.35;;;;;;;2.24;100.00;101039.16;5044131;28;20480;-71
2022/11/30 05:04:25;;;;;;;19.83;10.77;;;;;;;2.23;100.00;101034.75;5080411;28;20054;-71
2022/11/30 05:06:50;;;;;;;19.25;9.90;;;;;;;2.23;100.00;101040.25;5081406;28;20028;-71
2022/11/30 05:09:16;;;;;;;19.90;10.10;;;;;;;2.22;100.00;101041.28;5066889;28;20528;-71
2022/11/30 05:11:42;;;;;;;17.15;9.60;;;;;;;2.21;100.00;101056.06;5064630;28;20033;-71
2022/11/30 05:14:07;;;;;;;17.40;9.20;;;;;;;2.17;100.00;101055.69;5088610;28;20254;-71
2022/11/30 05:16:33;;;;;;;17.80;10.15;;;;;;;2.14;100.00;101053.38;5076428;28;20039;-71
2022/11/30 05:18:58;;;;;;;16.17;8.90;;;;;;;2.09;100.00;101047.75;5094476;28;20025;-71
2022/11/30 05:21:24;;;;;;;16.42;9.43;;;;;;;2.03;100.00;101056.84;5049856;28;20036;-71
2022/11/30 05:23:51;;;;;;;15.65;9.18;;;;;;;2.01;100.00;101056.25;5063680;28;20032;-71
2022/11/30 05:26:16;;;;;;;16.33;9.85;;;;;;;1.98;100.00;101057.53;5037245;28;20511;-71
2022/11/30 05:28:42;;;;;;;18.23;9.25;;;;;;;1.98;100.00;101057.53;5062393;28;20032;-71
2022/11/30 05:31:07;;;;;;;18.15;10.10;;;;;;;1.97;100.00;101058.56;5053308;28;20472;-71
2022/11/30 05:33:33;;;;;;;16.60;9.38;;;;;;;2.00;100.00;101058.13;5075712;28;20450;-71
2022/11/30 05:35:58;;;;;;;14.55;8.52;;;;;;;1.98;100.00;101057.53;5076911;28;20055;-71
2022/11/30 05:38:24;;;;;;;13.32;8.20;;;;;;;1.95;100.00;101058.00;5037875;28;20029;-71
2022/11/30 05:40:49;;;;;;;16.23;9.57;;;;;;;1.95;100.00;101063.47;5007234;28;20366;-71
2022/11/30 05:43:15;;;;;;;14.75;8.32;;;;;;;1.94;100.00;101059.03;5044403;28;20063;-71
2022/11/30 05:45:40;;;;;;;16.15;8.70;;;;;;;1.98;100.00;101056.69;5054659;28;20488;-71
2022/11/30 05:48:06;;;;;;;16.02;9.50;;;;;;;2.00;100.00;101066.34;5042389;28;20079;-70
2022/11/30 05:50:31;;;;;;;16.67;9.30;;;;;;;1.98;100.00;101057.53;5040030;28;20029;-71
2022/11/30 05:52:59;;;;;;;15.95;9.48;;;;;;;1.98;100.00;101054.78;5024430;28;20036;-71
2022/11/30 05:55:26;;;;;;;18.42;9.65;;;;;;;1.99;100.00;101055.63;5017616;28;20028;-71
2022/11/30 05:57:51;;;;;;;19.73;10.00;;;;;;;2.00;100.00;101055.38;5026981;28;20442;-71
2022/11/30 06:00:17;;;;;;;20.60;10.70;;;;;;;1.98;100.00;101052.06;5023414;28;20032;-71
2022/11/30 06:02:43;;;;;;;18.80;10.35;;;;;;;2.02;100.00;101060.66;5053328;28;20377;-71
2022/11/30 06:05:08;;;;;;;15.95;9.32;;;;;;;2.03;100.00;101043.16;5033773;28;20036;-71
2022/11/30 06:07:34;;;;;;;20.17;10.10;;;;;;;2.04;100.00;101055.78;5059781;28;20025;-71
2022/11/30 06:09:59;;;;;;;19.10;10.32;;;;;;;2.06;100.00;101059.13;5034305;28;20472;-73
2022/11/30 06:12:25;;;;;;;18.70;10.77;;;;;;;2.06;100.00;101050.06;5036697;28;20063;-71
2022/11/30 06:14:50;;;;;;;22.63;12.35;;;;;;;2.07;100.00;101051.78;5030018;28;20053;-71
2022/11/30 06:17:16;;;;;;;20.45;11.30;;;;;;;2.10;100.00;101057.63;5023066;28;20041;-71
2022/11/30 06:19:41;;;;;;;20.15;11.52;;;;;;;2.11;100.00;101058.47;5056437;28;20025;-70
2022/11/30 06:22:07;;;;;;;22.90;11.68;;;;;;;2.11;100.00;101053.81;5036393;28;20025;-71
2022/11/30 06:24:32;;;;;;;22.98;11.25;;;;;;;2.14;100.00;101063.50;5006929;28;20033;-71
2022/11/30 06:26:58;;;;;;;25.52;11.70;;;;;;;2.21;100.00;101065.13;5026441;28;20025;-71
2022/11/30 06:29:23;;;;;;;27.50;13.40;;;;;;;2.21;100.00;101067.03;5035887;28;20059;-71
2022/11/30 06:31:49;;;;;;;25.65;13.98;;;;;;;2.22;100.00;101069.53;5060445;28;20036;-71
2022/11/30 06:34:14;;;;;;;28.48;14.00;;;;;;;2.24;100.00;101063.84;5038884;28;20055;-71
2022/11/30 06:36:40;;;;;;;27.70;12.50;;;;;;;2.27;100.00;101068.84;5051180;28;20112;-71
2022/11/30 06:39:07;;;;;;;28.33;13.50;;;;;;;2.32;100.00;101066.28;5041480;28;20662;-71
2022/11/30 06:41:33;;;;;;;23.67;12.30;;;;;;;2.39;100.00;101063.47;5040915;28;20021;-71
2022/11/30 06:43:58;;;;;;;23.58;12.80;;;;;;;2.39;100.00;101056.06;5038929;28;20075;-71
2022/11/30 06:46:25;;;;;;;24.55;12.80;;;;;;;2.46;100.00;101059.59;5071874;28;20024;-71
2022/11/30 06:48:51;;;;;;;23.45;12.23;;;;;;;2.49;100.00;101057.47;5038926;28;20029;-71
2022/11/30 06:51:16;;;;;;;25.00;13.10;;;;;;;2.55;100.00;101062.03;5054277;28;20070;-71
2022/11/30 06:53:42;;;;;;;21.85;11.80;;;;;;;2.55;100.00;101065.63;5058729;28;20017;-71
2022/11/30 06:56:08;;;;;;;22.27;12.00;;;;;;;2.58;100.00;101067.06;5025503;28;20028;-71
2022/11/30 06:58:34;;;;;;;23.65;12.00;;;;;;;2.61;100.00;101058.38;5057905;28;20075;-71
2022/11/30 07:01:00;;;;;;;22.70;11.38;;;;;;;2.64;100.00;101071.63;5040935;28;20412;-71
2022/11/30 07:03:25;;;;;;;26.27;12.68;;;;;;;2.64;100.00;101066.97;5005484;28;20051;-71
2022/11/30 07:05:51;;;;;;;23.00;11.98;;;;;;;2.68;100.00;101061.91;5054375;28;20025;-71
2022/11/30 07:08:16;;;;;;;23.70;11.90;;;;;;;2.77;100.00;101059.69;5038590;28;20028;-71
2022/11/30 07:10:43;;;;;;;21.83;11.50;;;;;;;2.78;100.00;101064.94;5026156;28;20029;-71
2022/11/30 07:13:12;;;;;;;21.35;11.57;;;;;;;2.80;100.00;101071.03;5057150;28;20024;-71
2022/11/30 07:15:39;;;;;;;18.88;10.30;;;;;;;2.82;100.00;101063.41;5041173;28;20028;-71
2022/11/30 07:18:04;;;;;;;19.98;11.18;;;;;;;2.87;100.00;101071.81;5054611;28;20649;-71
2022/11/30 07:20:30;;;;;;;17.83;10.43;;;;;;;2.86;100.00;101072.84;5071468;28;20094;-71
2022/11/30 07:22:55;;;;;;;23.90;12.13;;;;;;;2.89;100.00;101072.38;5021987;28;20029;-71
2022/11/30 07:28:07;;;;;;;20.65;11.77;;;;;;;2.98;100.00;101085.81;5040723;28;20074;-71
2022/11/30 07:30:33;;;;;;;20.83;10.88;;;;;;;3.02;100.00;101092.53;5041121;28;20074;-71
2022/11/30 07:32:59;;;;;;;19.73;11.82;;;;;;;3.04;100.00;101084.91;5050044;28;20513;-71
2022/11/30 07:35:24;;;;;;;18.42;10.82;;;;;;;3.08;100.00;101099.84;5040414;28;20075;-71
2022/11/30 07:37:50;;;;;;;19.50;10.88;;;;;;;3.08;100.00;101094.34;5031949;28;20485;-74
2022/11/30 07:40:15;;;;;;;18.20;10.35;;;;;;;3.12;100.00;101095.53;5056241;28;20027;-71
2022/11/30 07:42:41;;;;;;;18.63;10.50;;;;;;;3.14;100.00;101099.75;5075727;28;20028;-71
2022/11/30 07:45:07;;;;;;;20.20;11.05;;;;;;;3.18;100.00;101100.13;5041364;28;20025;-71
2022/11/30 07:47:32;;;;;;;23.23;10.88;;;;;;;3.20;100.00;101105.38;5050871;28;20436;-71
2022/11/30 07:49:58;;;;;;;19.50;11.00;;;;;;;3.20;100.00;101108.97;5057894;28;20040;-71
2022/11/30 07:52:23;;;;;;;20.95;10.77;;;;;;;3.24;100.00;101104.69;5033459;28;20033;-71
2022/11/30 07:54:49;;;;;;;19.33;10.55;;;;;;;3.24;100.00;101104.69;5042962;28;20500;-71
2022/11/30 07:57:14;;;;;;;21.92;10.07;;;;;;;3.27;100.00;101109.72;5001126;28;20025;-71
2022/11/30 07:59:40;;;;;;;18.30;9.82;;;;;;;3.30;100.00;101109.25;5038499;28;20040;-71
2022/11/30 08:02:05;;;;;;;22.08;11.18;;;;;;;3.32;100.00;101115.38;5016509;28;20044;-71
2022/11/30 08:04:31;;;;;;;19.65;10.32;;;;;;;3.34;100.00;101115.13;5038421;28;20036;-71
2022/11/30 08:06:57;;;;;;;16.08;9.82;;;;;;;3.36;100.00;101112.97;5016372;28;20024;-71
2022/11/30 08:09:23;;;;;;;16.70;9.90;;;;;;;3.36;100.00;101118.47;5073186;28;20393;-71
2022/11/30 08:11:48;;;;;;;14.10;8.93;;;;;;;3.40;100.00;101121.59;5037438;28;20032;-71
2022/11/30 08:14:14;;;;;;;18.50;9.30;;;;;;;3.42;100.00;101116.72;5039909;28;20025;-71
2022/11/30 08:16:42;;;;;;;20.00;10.40;;;;;;;3.46;100.00;101117.94;5023557;28;20036;-71
2022/11/30 08:19:07;;;;;;;17.38;10.18;;;;;;;3.45;100.00;101130.81;5034098;28;20067;-71
2022/11/30 08:21:33;;;;;;;16.95;9.82;;;;;;;3.49;100.00;101117.47;5017118;28;20111;-71
2022/11/30 08:23:58;;;;;;;17.50;9.98;;;;;;;3.49;100.00;101117.47;5040836;28;20029;-71
2022/11/30 08:26:26;;;;;;;18.73;9.40;;;;;;;3.53;100.00;101125.00;5020947;28;20090;-71
2022/11/30 08:28:53;;;;;;;17.50;9.48;;;;;;;3.56;100.00;101129.19;5035158;28;20033;-71
2022/11/30 08:31:20;;;;;;;16.85;9.10;;;;;;;3.59;100.00;101125.97;5031550;28;20025;-71
2022/11/30 08:33:46;;;;;;;15.82;8.80;;;;;;;3.61;100.00;101125.75;5055347;28;20063;-71
2022/11/30 08:36:15;;;;;;;15.75;9.70;;;;;;;3.64;100.00;101131.59;5030105;28;20033;-71
2022/11/30 08:38:41;;;;;;;15.55;9.05;;;;;;;3.66;100.00;101137.72;5039334;28;20484;-71
2022/11/30 08:41:08;;;;;;;18.13;9.48;;;;;;;3.68;100.00;101132.84;5037603;28;20512;-71
2022/11/30 08:43:34;;;;;;;17.88;9.35;;;;;;;3.71;100.00;101137.84;5036508;28;20053;-71
2022/11/30 08:46:01;;;;;;;16.20;8.95;;;;;;;3.74;100.00;101137.38;5063753;28;20088;-71
2022/11/30 08:48:26;;;;;;;15.23;8.93;;;;;;;3.75;100.00;101138.22;5021376;28;20060;-71
2022/11/30 08:50:52;;;;;;;16.92;8.93;;;;;;;3.81;100.00;101143.59;5049045;28;20036;-71
2022/11/30 08:53:17;;;;;;;21.65;11.48;;;;;;;3.85;100.00;101141.25;5042961;28;20028;-71
2022/11/30 08:55:43;;;;;;;20.05;11.13;;;;;;;3.88;100.00;101149.03;5023998;28;20102;-71
2022/11/30 08:58:09;;;;;;;20.58;10.20;;;;;;;3.92;100.00;101143.88;5057121;28;20035;-71
2022/11/30 09:00:34;;;;;;;16.88;9.85;;;;;;;3.94;100.00;101145.34;5020776;28;20033;-71
2022/11/30 09:03:00;;;;;;;13.65;9.00;;;;;;;3.98;100.00;101142.94;5050170;28;20487;-71
2022/11/30 09:05:25;;;;;;;16.67;8.70;;;;;;;4.00;100.00;101146.31;5053944;28;20028;-71
2022/11/30 09:07:51;;;;;;;18.23;9.82;;;;;;;4.04;100.00;101136.53;5023025;28;20024;-71
2022/11/30 09:10:16;;;;;;;16.38;9.00;;;;;;;4.10;100.00;101152.06;5054753;28;20024;-71
2022/11/30 09:12:42;;;;;;;15.15;9.43;;;;;;;4.11;100.00;101148.25;5034679;28;20040;-71
2022/11/30 09:15:08;;;;;;;18.58;10.68;;;;;;;4.18;100.00;101143.50;5016823;28;20032;-71
2022/11/30 09:17:34;;;;;;;18.10;10.57;;;;;;;4.24;100.00;101152.72;5023786;28;20512;-71
2022/11/30 09:20:00;;;;;;;20.65;11.98;;;;;;;4.27;100.00;101154.97;5023899;28;20035;-71
2022/11/30 09:22:25;;;;;;;16.75;9.77;;;;;;;4.30;100.00;101159.16;5058395;28;20532;-71
2022/11/30 09:24:51;;;;;;;16.30;9.68;;;;;;;4.33;100.00;101148.53;5042603;28;20036;-71
2022/11/30 09:27:17;;;;;;;16.77;9.73;;;;;;;4.39;100.00;101149.50;5038067;28;20036;-71
2022/11/30 09:29:42;;;;;;;16.83;9.52;;;;;;;4.42;100.00;101152.59;4994255;28;20025;-71
2022/11/30 09:32:07;;;;;;;21.42;11.07;;;;;;;4.48;100.00;101153.56;5057961;28;20029;-71
2022/11/30 09:34:33;;;;;;;22.05;11.50;;;;;;;4.50;100.00;101150.56;5055475;28;20049;-71
2022/11/30 09:36:58;;;;;;;23.63;11.90;;;;;;;4.57;100.00;101152.16;5042367;28;20040;-71
2022/11/30 09:39:24;;;;;;;18.70;11.45;;;;;;;4.60;100.00;101156.34;5035187;28;20028;-71
2022/11/30 09:41:49;;;;;;;22.08;11.68;;;;;;;4.63;100.00;101159.44;5077957;28;20793;-71
2022/11/30 09:44:27;;;;;;;21.35;11.82;;;;;;;4.72;100.00;101168.16;5060170;28;20032;-71
2022/11/30 09:46:58;;;;;;;22.95;12.90;;;;;;;4.75;100.00;101159.44;5059857;28;20037;-71
2022/11/30 09:49:34;;;;;;;19.25;11.25;;;;;;;4.79;100.00;101163.41;5057410;28;20032;-71
2022/11/30 09:52:03;;;;;;;21.65;11.73;;;;;;;4.84;100.00;101173.66;5026974;28;20032;-71
2022/11/30 09:54:36;;;;;;;22.27;11.35;;;;;;;4.87;100.00;101174.00;5027156;28;20114;-71
2022/11/30 09:57:24;;;;;;;19.95;11.32;;;;;;;4.94;100.00;101168.41;5026662;28;20031;-71
2022/11/30 09:59:57;;;;;;;19.38;10.70;;;;;;;4.96;100.00;101169.00;5024739;28;20041;-71
2022/11/30 10:02:33;;;;;;;19.70;11.00;;;;;;;5.04;100.00;101174.16;5031695;28;20032;-71
2022/11/30 10:04:59;;;;;;;18.08;10.82;;;;;;;5.11;100.00;101182.28;5063343;28;20377;-71
2022/11/30 10:07:41;;;;;;;15.57;9.63;;;;;;;5.20;100.00;101175.31;5033966;28;20093;-71
2022/11/30 10:10:28;;;;;;;14.88;8.73;;;;;;;5.31;100.00;101179.13;5059770;28;20116;-72
2022/11/30 10:13:19;;;;;;;15.80;9.70;;;;;;;5.39;100.00;101170.47;5077830;28;20032;-71
2022/11/30 10:15:55;;;;;;;15.30;9.20;;;;;;;5.48;100.00;101179.19;5054570;28;20178;-72
2022/11/30 10:18:42;;;;;;;18.75;10.85;;;;;;;5.57;100.00;101173.06;5059279;28;20036;-71
2022/11/30 10:21:30;;;;;;;16.10;9.77;;;;;;;5.69;100.00;101169.44;5045605;28;20025;-71
2022/11/30 10:23:58;;;;;;;16.98;10.43;;;;;;;5.78;100.00;101165.19;5057648;28;20469;-72
2022/11/30 10:26:36;;;;;;;15.52;9.90;;;;;;;5.87;100.00;101158.19;5059224;28;20557;-71
2022/11/30 10:29:17;;;;;;;16.08;9.27;;;;;;;5.96;100.00;101156.78;5044778;28;20020;-71
2022/11/30 10:31:43;;;;;;;24.58;11.38;;;;;;;6.03;100.00;101165.69;5057455;28;20542;-71
2022/11/30 10:34:33;;;;;;;19.90;9.80;;;;;;;6.17;100.00;101170.91;5046146;28;20052;-71
2022/11/30 10:36:58;;;;;;;26.38;11.82;;;;;;;6.23;100.00;101169.91;5074977;28;20040;-72
2022/11/30 10:39:26;;;;;;;18.33;10.88;;;;;;;6.30;100.00;101170.59;5038279;28;20128;-72
2022/11/30 10:41:55;;;;;;;20.45;11.65;;;;;;;6.39;100.00;101169.09;5059628;28;20029;-71
2022/11/30 10:44:25;;;;;;;19.67;10.50;;;;;;;6.50;100.00;101153.53;5035065;28;20064;-72
2022/11/30 10:47:06;;;;;;;18.17;10.18;;;;;;;6.58;100.00;101161.41;5025350;28;20028;-72
2022/11/30 10:49:31;;;;;;;23.13;11.23;;;;;;;6.69;100.00;101156.88;5042199;28;20028;-72
2022/11/30 10:52:02;;;;;;;18.60;10.38;;;;;;;6.75;100.00;101149.53;5039067;28;20496;-71
2022/11/30 10:54:28;;;;;;;19.60;10.77;;;;;;;6.79;100.00;101151.50;5038472;28;20154;-72
2022/11/30 10:56:54;;;;;;;21.67;10.55;;;;;;;6.84;100.00;101162.63;5039003;28;20053;-71
2022/11/30 10:59:37;;;;;;;19.10;10.10;;;;;;;6.89;100.00;101159.13;5009064;28;20036;-71
2022/11/30 11:02:07;;;;;;;;;;;;;;;6.92;100.00;101164.13;5024064;28;20405;-72
2022/11/30 11:04:32;;;;;;;19.83;10.55;;;;;;;6.96;100.00;101157.00;5037705;28;20276;-72
2022/11/30 11:07:08;;;;;;;19.85;10.48;;;;;;;6.93;100.00;101157.50;5042050;28;20032;-72
2022/11/30 11:09:38;;;;;;;16.67;9.90;;;;;;;6.90;100.00;101153.31;5022014;28;20087;-71
2022/11/30 11:12:26;;;;;;;20.33;10.75;;;;;;;6.90;100.00;101153.31;5040172;28;20103;-72
2022/11/30 11:15:19;;;;;;;18.90;10.10;;;;;;;6.92;100.00;101156.66;5058380;28;20568;-72
2022/11/30 11:17:45;;;;;;;17.30;10.30;;;;;;;6.93;100.00;101147.28;5058224;28;20036;-72